sensor_id;sensor_type;location;lat;lon;timestamp;P1;durP1;ratioP1;P2;durP2;ratioP2
59970;SDS011;45825;45.434;9.116;2024-01-10T00:01:06;17.05;;;8.90;;
59970;SDS011;45825;45.434;9.116;2024-01-10T00:03:31;18.67;;;8.98;;
59970;SDS011;45825;45.434;9.116;2024-01-10T00:05:57;16.23;;;9.05;;
59970;SDS011;45825;45.434;9.116;2024-01-10T00:08:22;17.88;;;9.45;;
59970;SDS011;45825;45.434;9.116;2024-01-10T00:10:47;17.50;;;8.65;;
59970;SDS011;45825;45.434;9.116;2024-01-10T00:13:13;18.48;;;9.27;;
59970;SDS011;45825;45.434;9.116;2024-01-10T00:15:38;18.23;;;8.73;;
59970;SDS011;45825;45.434;9.116;2024-01-10T00:18:03;17.02;;;8.57;;
59970;SDS011;45825;45.434;9.116;2024-01-10T00:20:29;15.60;;;7.97;;
59970;SDS011;45825;45.434;9.116;2024-01-10T00:22:54;14.98;;;8.85;;
59970;SDS011;45825;45.434;9.116;2024-01-10T00:25:19;16.67;;;8.82;;
59970;SDS011;45825;45.434;9.116;2024-01-10T00:27:45;19.02;;;9.20;;
59970;SDS011;45825;45.434;9.116;2024-01-10T00:30:10;15.50;;;8.30;;
59970;SDS011;45825;45.434;9.116;2024-01-10T00:32:35;16.73;;;9.02;;
59970;SDS011;45825;45.434;9.116;2024-01-10T00:35:01;15.10;;;8.55;;
59970;SDS011;45825;45.434;9.116;2024-01-10T00:37:26;17.40;;;8.82;;
59970;SDS011;45825;45.434;9.116;2024-01-10T00:39:52;17.60;;;8.40;;
59970;SDS011;45825;45.434;9.116;2024-01-10T00:42:17;16.90;;;8.57;;
59970;SDS011;45825;45.434;9.116;2024-01-10T00:44:43;15.18;;;9.02;;
59970;SDS011;45825;45.434;9.116;2024-01-10T00:47:09;17.83;;;8.27;;
59970;SDS011;45825;45.434;9.116;2024-01-10T00:49:35;14.23;;;8.45;;
59970;SDS011;45825;45.434;9.116;2024-01-10T00:52:01;14.35;;;8.30;;
59970;SDS011;45825;45.434;9.116;2024-01-10T00:54:26;18.05;;;8.48;;
59970;SDS011;45825;45.434;9.116;2024-01-10T00:56:52;19.73;;;8.20;;
59970;SDS011;45825;45.434;9.116;2024-01-10T00:59:17;17.30;;;7.93;;
59970;SDS011;45825;45.434;9.116;2024-01-10T01:01:42;13.60;;;7.68;;
59970;SDS011;45825;45.434;9.116;2024-01-10T01:04:08;16.17;;;8.10;;
59970;SDS011;45825;45.434;9.116;2024-01-10T01:06:33;12.38;;;7.65;;
59970;SDS011;45825;45.434;9.116;2024-01-10T01:08:58;16.33;;;8.38;;
59970;SDS011;45825;45.434;9.116;2024-01-10T01:11:24;16.10;;;8.45;;
59970;SDS011;45825;45.434;9.116;2024-01-10T01:13:49;14.07;;;7.93;;
59970;SDS011;45825;45.434;9.116;2024-01-10T01:16:14;16.27;;;8.32;;
59970;SDS011;45825;45.434;9.116;2024-01-10T01:18:40;13.70;;;8.05;;
59970;SDS011;45825;45.434;9.116;2024-01-10T01:21:07;14.30;;;8.38;;
59970;SDS011;45825;45.434;9.116;2024-01-10T01:23:32;15.68;;;8.88;;
59970;SDS011;45825;45.434;9.116;2024-01-10T01:25:58;17.60;;;8.45;;
59970;SDS011;45825;45.434;9.116;2024-01-10T01:28:24;15.68;;;8.30;;
59970;SDS011;45825;45.434;9.116;2024-01-10T01:30:49;16.58;;;7.95;;
59970;SDS011;45825;45.434;9.116;2024-01-10T01:33:14;15.32;;;8.38;;
59970;SDS011;45825;45.434;9.116;2024-01-10T01:35:40;14.00;;;8.88;;
59970;SDS011;45825;45.434;9.116;2024-01-10T01:38:05;13.38;;;7.88;;
59970;SDS011;45825;45.434;9.116;2024-01-10T01:40:30;14.55;;;8.43;;
59970;SDS011;45825;45.434;9.116;2024-01-10T01:42:56;15.70;;;8.30;;
59970;SDS011;45825;45.434;9.116;2024-01-10T01:45:21;14.40;;;8.23;;
59970;SDS011;45825;45.434;9.116;2024-01-10T01:47:46;17.27;;;8.00;;
59970;SDS011;45825;45.434;9.116;2024-01-10T01:50:12;13.50;;;7.63;;
59970;SDS011;45825;45.434;9.116;2024-01-10T01:52:37;14.88;;;8.38;;
59970;SDS011;45825;45.434;9.116;2024-01-10T01:55:03;13.93;;;7.75;;
59970;SDS011;45825;45.434;9.116;2024-01-10T01:57:31;13.60;;;7.88;;
59970;SDS011;45825;45.434;9.116;2024-01-10T01:59:57;14.52;;;8.05;;
59970;SDS011;45825;45.434;9.116;2024-01-10T02:02:22;15.90;;;8.05;;
59970;SDS011;45825;45.434;9.116;2024-01-10T02:04:49;16.77;;;8.50;;
59970;SDS011;45825;45.434;9.116;2024-01-10T02:07:14;14.73;;;8.15;;
59970;SDS011;45825;45.434;9.116;2024-01-10T02:09:39;19.63;;;9.07;;
59970;SDS011;45825;45.434;9.116;2024-01-10T02:12:05;18.98;;;9.35;;
59970;SDS011;45825;45.434;9.116;2024-01-10T02:14:30;16.27;;;8.57;;
59970;SDS011;45825;45.434;9.116;2024-01-10T02:16:56;14.27;;;8.57;;
59970;SDS011;45825;45.434;9.116;2024-01-10T02:19:22;17.08;;;8.63;;
59970;SDS011;45825;45.434;9.116;2024-01-10T02:21:48;16.85;;;8.88;;
59970;SDS011;45825;45.434;9.116;2024-01-10T02:24:13;14.20;;;8.48;;
59970;SDS011;45825;45.434;9.116;2024-01-10T02:26:39;14.55;;;8.50;;
59970;SDS011;45825;45.434;9.116;2024-01-10T02:29:05;14.90;;;8.55;;
59970;SDS011;45825;45.434;9.116;2024-01-10T02:31:30;13.23;;;7.72;;
59970;SDS011;45825;45.434;9.116;2024-01-10T02:33:55;14.00;;;7.82;;
59970;SDS011;45825;45.434;9.116;2024-01-10T02:36:21;17.25;;;8.32;;
59970;SDS011;45825;45.434;9.116;2024-01-10T02:38:46;17.15;;;7.85;;
59970;SDS011;45825;45.434;9.116;2024-01-10T02:41:12;15.10;;;7.70;;
59970;SDS011;45825;45.434;9.116;2024-01-10T02:43:38;14.32;;;7.03;;
59970;SDS011;45825;45.434;9.116;2024-01-10T02:46:03;13.05;;;6.90;;
59970;SDS011;45825;45.434;9.116;2024-01-10T02:48:28;12.18;;;7.45;;
59970;SDS011;45825;45.434;9.116;2024-01-10T02:50:54;11.65;;;6.80;;
59970;SDS011;45825;45.434;9.116;2024-01-10T02:53:20;13.40;;;8.02;;
59970;SDS011;45825;45.434;9.116;2024-01-10T02:55:46;17.27;;;8.18;;
59970;SDS011;45825;45.434;9.116;2024-01-10T02:58:11;12.60;;;7.30;;
59970;SDS011;45825;45.434;9.116;2024-01-10T03:00:36;13.40;;;7.78;;
59970;SDS011;45825;45.434;9.116;2024-01-10T03:03:02;13.95;;;7.28;;
59970;SDS011;45825;45.434;9.116;2024-01-10T03:05:28;14.80;;;7.85;;
59970;SDS011;45825;45.434;9.116;2024-01-10T03:07:53;14.82;;;7.40;;
59970;SDS011;45825;45.434;9.116;2024-01-10T03:10:18;16.85;;;8.23;;
59970;SDS011;45825;45.434;9.116;2024-01-10T03:12:44;13.48;;;7.68;;
59970;SDS011;45825;45.434;9.116;2024-01-10T03:15:09;12.88;;;7.32;;
59970;SDS011;45825;45.434;9.116;2024-01-10T03:17:34;13.55;;;7.50;;
59970;SDS011;45825;45.434;9.116;2024-01-10T03:20:01;13.35;;;7.30;;
59970;SDS011;45825;45.434;9.116;2024-01-10T03:22:27;14.25;;;7.63;;
59970;SDS011;45825;45.434;9.116;2024-01-10T03:24:52;14.40;;;6.90;;
59970;SDS011;45825;45.434;9.116;2024-01-10T03:27:17;14.00;;;7.50;;
59970;SDS011;45825;45.434;9.116;2024-01-10T03:29:43;13.55;;;7.60;;
59970;SDS011;45825;45.434;9.116;2024-01-10T03:32:08;12.98;;;7.57;;
59970;SDS011;45825;45.434;9.116;2024-01-10T03:34:33;14.40;;;7.43;;
59970;SDS011;45825;45.434;9.116;2024-01-10T03:36:58;13.52;;;7.72;;
59970;SDS011;45825;45.434;9.116;2024-01-10T03:39:24;14.75;;;6.72;;
59970;SDS011;45825;45.434;9.116;2024-01-10T03:41:49;11.30;;;6.20;;
59970;SDS011;45825;45.434;9.116;2024-01-10T03:44:14;13.73;;;6.55;;
59970;SDS011;45825;45.434;9.116;2024-01-10T03:46:39;11.48;;;6.22;;
59970;SDS011;45825;45.434;9.116;2024-01-10T03:49:05;10.80;;;6.32;;
59970;SDS011;45825;45.434;9.116;2024-01-10T03:51:30;14.70;;;6.85;;
59970;SDS011;45825;45.434;9.116;2024-01-10T03:56:24;12.88;;;7.32;;
59970;SDS011;45825;45.434;9.116;2024-01-10T03:58:51;12.63;;;6.82;;
59970;SDS011;45825;45.434;9.116;2024-01-10T04:01:16;15.30;;;7.45;;
59970;SDS011;45825;45.434;9.116;2024-01-10T04:03:42;14.50;;;7.50;;
59970;SDS011;45825;45.434;9.116;2024-01-10T04:06:07;13.82;;;7.40;;
59970;SDS011;45825;45.434;9.116;2024-01-10T04:08:32;13.70;;;7.97;;
59970;SDS011;45825;45.434;9.116;2024-01-10T04:10:58;14.43;;;8.32;;
59970;SDS011;45825;45.434;9.116;2024-01-10T04:13:23;14.38;;;7.75;;
59970;SDS011;45825;45.434;9.116;2024-01-10T04:15:49;14.55;;;7.65;;
59970;SDS011;45825;45.434;9.116;2024-01-10T04:18:14;14.52;;;7.28;;
59970;SDS011;45825;45.434;9.116;2024-01-10T04:20:40;12.57;;;7.00;;
59970;SDS011;45825;45.434;9.116;2024-01-10T04:23:05;12.90;;;7.47;;
59970;SDS011;45825;45.434;9.116;2024-01-10T04:25:30;13.15;;;7.88;;
59970;SDS011;45825;45.434;9.116;2024-01-10T04:27:56;12.48;;;7.10;;
59970;SDS011;45825;45.434;9.116;2024-01-10T04:30:22;13.07;;;7.38;;
59970;SDS011;45825;45.434;9.116;2024-01-10T04:32:47;11.65;;;6.93;;
59970;SDS011;45825;45.434;9.116;2024-01-10T04:35:13;12.75;;;7.07;;
59970;SDS011;45825;45.434;9.116;2024-01-10T04:37:39;15.27;;;7.65;;
59970;SDS011;45825;45.434;9.116;2024-01-10T04:40:05;12.15;;;7.05;;
59970;SDS011;45825;45.434;9.116;2024-01-10T04:42:31;12.55;;;7.25;;
59970;SDS011;45825;45.434;9.116;2024-01-10T04:44:57;12.45;;;7.22;;
59970;SDS011;45825;45.434;9.116;2024-01-10T04:47:22;11.82;;;7.00;;
59970;SDS011;45825;45.434;9.116;2024-01-10T04:49:47;12.38;;;7.82;;
59970;SDS011;45825;45.434;9.116;2024-01-10T04:52:12;10.80;;;6.88;;
59970;SDS011;45825;45.434;9.116;2024-01-10T04:54:38;14.23;;;7.78;;
59970;SDS011;45825;45.434;9.116;2024-01-10T04:57:04;13.20;;;7.68;;
59970;SDS011;45825;45.434;9.116;2024-01-10T04:59:29;11.90;;;7.70;;
59970;SDS011;45825;45.434;9.116;2024-01-10T05:01:54;12.77;;;7.15;;
59970;SDS011;45825;45.434;9.116;2024-01-10T05:04:20;12.88;;;7.10;;
59970;SDS011;45825;45.434;9.116;2024-01-10T05:06:45;15.02;;;6.82;;
59970;SDS011;45825;45.434;9.116;2024-01-10T05:09:10;16.40;;;6.85;;
59970;SDS011;45825;45.434;9.116;2024-01-10T05:11:36;12.55;;;8.07;;
59970;SDS011;45825;45.434;9.116;2024-01-10T05:14:02;13.40;;;6.90;;
59970;SDS011;45825;45.434;9.116;2024-01-10T05:16:28;11.63;;;6.60;;
59970;SDS011;45825;45.434;9.116;2024-01-10T05:18:53;12.48;;;6.78;;
59970;SDS011;45825;45.434;9.116;2024-01-10T05:21:18;12.55;;;6.90;;
59970;SDS011;45825;45.434;9.116;2024-01-10T05:23:44;12.75;;;7.28;;
59970;SDS011;45825;45.434;9.116;2024-01-10T05:26:09;13.18;;;7.28;;
59970;SDS011;45825;45.434;9.116;2024-01-10T05:28:35;13.90;;;7.10;;
59970;SDS011;45825;45.434;9.116;2024-01-10T05:31:00;14.90;;;7.18;;
59970;SDS011;45825;45.434;9.116;2024-01-10T05:33:26;12.70;;;7.50;;
59970;SDS011;45825;45.434;9.116;2024-01-10T05:35:51;11.95;;;7.60;;
59970;SDS011;45825;45.434;9.116;2024-01-10T05:38:16;24.50;;;7.55;;
59970;SDS011;45825;45.434;9.116;2024-01-10T05:40:42;12.40;;;7.43;;
59970;SDS011;45825;45.434;9.116;2024-01-10T05:43:07;13.65;;;7.53;;
59970;SDS011;45825;45.434;9.116;2024-01-10T05:45:33;12.40;;;7.40;;
59970;SDS011;45825;45.434;9.116;2024-01-10T05:47:58;14.20;;;7.47;;
59970;SDS011;45825;45.434;9.116;2024-01-10T05:50:24;11.50;;;7.07;;
59970;SDS011;45825;45.434;9.116;2024-01-10T05:52:49;15.18;;;7.47;;
59970;SDS011;45825;45.434;9.116;2024-01-10T05:55:14;14.77;;;7.68;;
59970;SDS011;45825;45.434;9.116;2024-01-10T05:57:40;13.43;;;7.40;;
59970;SDS011;45825;45.434;9.116;2024-01-10T06:00:05;13.73;;;7.78;;
59970;SDS011;45825;45.434;9.116;2024-01-10T06:02:37;13.27;;;7.70;;
59970;SDS011;45825;45.434;9.116;2024-01-10T06:05:06;13.60;;;7.35;;
59970;SDS011;45825;45.434;9.116;2024-01-10T06:07:36;13.10;;;7.68;;
59970;SDS011;45825;45.434;9.116;2024-01-10T06:10:06;14.52;;;7.78;;
59970;SDS011;45825;45.434;9.116;2024-01-10T06:12:31;15.68;;;7.93;;
59970;SDS011;45825;45.434;9.116;2024-01-10T06:14:57;14.75;;;7.68;;
59970;SDS011;45825;45.434;9.116;2024-01-10T06:17:22;13.52;;;7.95;;
59970;SDS011;45825;45.434;9.116;2024-01-10T06:19:48;14.63;;;7.78;;
59970;SDS011;45825;45.434;9.116;2024-01-10T06:22:14;15.32;;;8.32;;
59970;SDS011;45825;45.434;9.116;2024-01-10T06:24:40;13.55;;;7.55;;
59970;SDS011;45825;45.434;9.116;2024-01-10T06:27:08;13.25;;;7.65;;
59970;SDS011;45825;45.434;9.116;2024-01-10T06:29:34;13.00;;;7.63;;
59970;SDS011;45825;45.434;9.116;2024-01-10T06:32:00;14.18;;;8.30;;
59970;SDS011;45825;45.434;9.116;2024-01-10T06:34:26;13.70;;;7.00;;
59970;SDS011;45825;45.434;9.116;2024-01-10T06:36:52;16.75;;;8.23;;
59970;SDS011;45825;45.434;9.116;2024-01-10T06:39:17;12.20;;;7.60;;
59970;SDS011;45825;45.434;9.116;2024-01-10T06:41:45;14.10;;;8.10;;
59970;SDS011;45825;45.434;9.116;2024-01-10T06:44:11;17.17;;;7.63;;
59970;SDS011;45825;45.434;9.116;2024-01-10T06:46:36;14.07;;;7.85;;
59970;SDS011;45825;45.434;9.116;2024-01-10T06:49:02;15.82;;;7.93;;
59970;SDS011;45825;45.434;9.116;2024-01-10T06:51:27;14.05;;;7.72;;
59970;SDS011;45825;45.434;9.116;2024-01-10T06:53:53;12.82;;;7.45;;
59970;SDS011;45825;45.434;9.116;2024-01-10T06:56:25;16.85;;;7.88;;
59970;SDS011;45825;45.434;9.116;2024-01-10T06:58:50;14.40;;;8.07;;
59970;SDS011;45825;45.434;9.116;2024-01-10T07:01:16;15.82;;;7.65;;
59970;SDS011;45825;45.434;9.116;2024-01-10T07:03:41;15.52;;;8.18;;
59970;SDS011;45825;45.434;9.116;2024-01-10T07:06:07;13.93;;;8.23;;
59970;SDS011;45825;45.434;9.116;2024-01-10T07:08:32;16.42;;;7.93;;
59970;SDS011;45825;45.434;9.116;2024-01-10T07:10:57;15.32;;;8.43;;
59970;SDS011;45825;45.434;9.116;2024-01-10T07:13:23;17.63;;;7.70;;
59970;SDS011;45825;45.434;9.116;2024-01-10T07:15:48;14.02;;;7.65;;
59970;SDS011;45825;45.434;9.116;2024-01-10T07:18:15;20.58;;;8.40;;
59970;SDS011;45825;45.434;9.116;2024-01-10T07:20:41;18.10;;;8.20;;
59970;SDS011;45825;45.434;9.116;2024-01-10T07:23:06;15.00;;;8.32;;
59970;SDS011;45825;45.434;9.116;2024-01-10T07:25:32;16.65;;;8.05;;
59970;SDS011;45825;45.434;9.116;2024-01-10T07:27:58;12.68;;;7.82;;
59970;SDS011;45825;45.434;9.116;2024-01-10T07:30:24;12.75;;;8.02;;
59970;SDS011;45825;45.434;9.116;2024-01-10T07:32:49;14.85;;;8.43;;
59970;SDS011;45825;45.434;9.116;2024-01-10T07:35:15;15.77;;;8.10;;
59970;SDS011;45825;45.434;9.116;2024-01-10T07:37:40;14.75;;;8.35;;
59970;SDS011;45825;45.434;9.116;2024-01-10T07:40:07;15.65;;;8.65;;
59970;SDS011;45825;45.434;9.116;2024-01-10T07:42:33;16.20;;;8.40;;
59970;SDS011;45825;45.434;9.116;2024-01-10T07:44:59;18.10;;;8.68;;
59970;SDS011;45825;45.434;9.116;2024-01-10T07:47:28;13.98;;;8.23;;
59970;SDS011;45825;45.434;9.116;2024-01-10T07:49:54;15.27;;;8.65;;
59970;SDS011;45825;45.434;9.116;2024-01-10T07:52:19;13.93;;;8.52;;
59970;SDS011;45825;45.434;9.116;2024-01-10T07:54:44;15.70;;;9.00;;
59970;SDS011;45825;45.434;9.116;2024-01-10T07:57:10;17.48;;;8.48;;
59970;SDS011;45825;45.434;9.116;2024-01-10T07:59:36;14.52;;;7.90;;
59970;SDS011;45825;45.434;9.116;2024-01-10T08:02:01;15.85;;;8.35;;
59970;SDS011;45825;45.434;9.116;2024-01-10T08:04:27;15.20;;;8.93;;
59970;SDS011;45825;45.434;9.116;2024-01-10T08:06:52;16.65;;;8.88;;
59970;SDS011;45825;45.434;9.116;2024-01-10T08:09:19;15.70;;;8.95;;
59970;SDS011;45825;45.434;9.116;2024-01-10T08:11:45;14.65;;;8.88;;
59970;SDS011;45825;45.434;9.116;2024-01-10T08:14:10;15.38;;;8.60;;
59970;SDS011;45825;45.434;9.116;2024-01-10T08:16:36;17.52;;;9.00;;
59970;SDS011;45825;45.434;9.116;2024-01-10T08:19:01;15.80;;;9.18;;
59970;SDS011;45825;45.434;9.116;2024-01-10T08:21:26;17.50;;;9.52;;
59970;SDS011;45825;45.434;9.116;2024-01-10T08:23:52;20.50;;;8.98;;
59970;SDS011;45825;45.434;9.116;2024-01-10T08:26:17;18.35;;;9.35;;
59970;SDS011;45825;45.434;9.116;2024-01-10T08:28:42;14.15;;;8.48;;
59970;SDS011;45825;45.434;9.116;2024-01-10T08:31:08;18.83;;;9.00;;
59970;SDS011;45825;45.434;9.116;2024-01-10T08:33:33;15.40;;;8.35;;
59970;SDS011;45825;45.434;9.116;2024-01-10T08:35:58;16.10;;;8.48;;
59970;SDS011;45825;45.434;9.116;2024-01-10T08:38:24;16.88;;;9.13;;
59970;SDS011;45825;45.434;9.116;2024-01-10T08:40:49;16.17;;;8.82;;
59970;SDS011;45825;45.434;9.116;2024-01-10T08:43:14;16.08;;;9.07;;
59970;SDS011;45825;45.434;9.116;2024-01-10T08:45:40;16.15;;;8.18;;
59970;SDS011;45825;45.434;9.116;2024-01-10T08:48:05;16.02;;;7.65;;
59970;SDS011;45825;45.434;9.116;2024-01-10T08:50:32;15.80;;;8.25;;
59970;SDS011;45825;45.434;9.116;2024-01-10T08:52:59;17.25;;;8.57;;
59970;SDS011;45825;45.434;9.116;2024-01-10T08:55:24;15.32;;;8.70;;
59970;SDS011;45825;45.434;9.116;2024-01-10T08:57:49;17.17;;;9.02;;
59970;SDS011;45825;45.434;9.116;2024-01-10T09:00:15;18.70;;;8.90;;
59970;SDS011;45825;45.434;9.116;2024-01-10T09:02:41;18.70;;;8.98;;
59970;SDS011;45825;45.434;9.116;2024-01-10T09:05:06;20.08;;;10.75;;
59970;SDS011;45825;45.434;9.116;2024-01-10T09:07:34;18.27;;;9.98;;
59970;SDS011;45825;45.434;9.116;2024-01-10T09:10:00;17.13;;;9.45;;
59970;SDS011;45825;45.434;9.116;2024-01-10T09:12:26;15.95;;;8.90;;
59970;SDS011;45825;45.434;9.116;2024-01-10T09:14:51;16.17;;;9.63;;
59970;SDS011;45825;45.434;9.116;2024-01-10T09:17:17;18.17;;;8.90;;
59970;SDS011;45825;45.434;9.116;2024-01-10T09:19:42;16.52;;;9.40;;
59970;SDS011;45825;45.434;9.116;2024-01-10T09:22:07;20.00;;;8.85;;
59970;SDS011;45825;45.434;9.116;2024-01-10T09:24:32;16.83;;;9.15;;
59970;SDS011;45825;45.434;9.116;2024-01-10T09:26:58;16.27;;;9.23;;
59970;SDS011;45825;45.434;9.116;2024-01-10T09:29:24;15.52;;;8.45;;
59970;SDS011;45825;45.434;9.116;2024-01-10T09:31:50;16.90;;;9.02;;
59970;SDS011;45825;45.434;9.116;2024-01-10T09:34:16;17.92;;;9.23;;
59970;SDS011;45825;45.434;9.116;2024-01-10T09:36:41;14.80;;;8.10;;
59970;SDS011;45825;45.434;9.116;2024-01-10T09:39:07;16.90;;;8.05;;
59970;SDS011;45825;45.434;9.116;2024-01-10T09:41:39;13.85;;;7.43;;
59970;SDS011;45825;45.434;9.116;2024-01-10T09:44:10;14.95;;;7.53;;
59970;SDS011;45825;45.434;9.116;2024-01-10T09:46:36;15.57;;;8.50;;
59970;SDS011;45825;45.434;9.116;2024-01-10T09:49:05;14.13;;;8.35;;
59970;SDS011;45825;45.434;9.116;2024-01-10T09:51:31;13.75;;;7.85;;
59970;SDS011;45825;45.434;9.116;2024-01-10T09:53:58;17.20;;;8.32;;
59970;SDS011;45825;45.434;9.116;2024-01-10T09:56:28;18.27;;;7.63;;
59970;SDS011;45825;45.434;9.116;2024-01-10T09:58:54;14.73;;;7.95;;
59970;SDS011;45825;45.434;9.116;2024-01-10T10:01:23;15.63;;;7.78;;
59970;SDS011;45825;45.434;9.116;2024-01-10T10:03:49;18.27;;;8.95;;
59970;SDS011;45825;45.434;9.116;2024-01-10T10:06:15;18.35;;;8.32;;
59970;SDS011;45825;45.434;9.116;2024-01-10T10:08:41;16.05;;;8.25;;
59970;SDS011;45825;45.434;9.116;2024-01-10T10:11:07;19.05;;;8.02;;
59970;SDS011;45825;45.434;9.116;2024-01-10T10:13:37;15.73;;;7.57;;
59970;SDS011;45825;45.434;9.116;2024-01-10T10:16:06;14.68;;;7.95;;
59970;SDS011;45825;45.434;9.116;2024-01-10T10:18:34;16.00;;;7.70;;
59970;SDS011;45825;45.434;9.116;2024-01-10T10:23:39;16.55;;;8.13;;
59970;SDS011;45825;45.434;9.116;2024-01-10T10:26:15;13.90;;;8.30;;
59970;SDS011;45825;45.434;9.116;2024-01-10T10:28:45;13.82;;;7.93;;
59970;SDS011;45825;45.434;9.116;2024-01-10T10:31:11;17.27;;;8.88;;
59970;SDS011;45825;45.434;9.116;2024-01-10T10:33:36;16.02;;;8.63;;
59970;SDS011;45825;45.434;9.116;2024-01-10T10:36:02;16.98;;;8.50;;
59970;SDS011;45825;45.434;9.116;2024-01-10T10:38:28;17.55;;;9.45;;
59970;SDS011;45825;45.434;9.116;2024-01-10T10:40:53;14.70;;;8.75;;
59970;SDS011;45825;45.434;9.116;2024-01-10T10:43:19;17.77;;;9.02;;
59970;SDS011;45825;45.434;9.116;2024-01-10T10:45:47;15.15;;;8.43;;
59970;SDS011;45825;45.434;9.116;2024-01-10T10:48:16;15.70;;;9.02;;
59970;SDS011;45825;45.434;9.116;2024-01-10T10:50:59;17.42;;;9.15;;
59970;SDS011;45825;45.434;9.116;2024-01-10T10:53:28;19.13;;;8.80;;
59970;SDS011;45825;45.434;9.116;2024-01-10T10:55:55;18.23;;;9.00;;
59970;SDS011;45825;45.434;9.116;2024-01-10T10:58:24;14.90;;;8.32;;
59970;SDS011;45825;45.434;9.116;2024-01-10T11:00:49;16.70;;;8.23;;
59970;SDS011;45825;45.434;9.116;2024-01-10T11:03:15;16.38;;;8.48;;
59970;SDS011;45825;45.434;9.116;2024-01-10T11:05:41;20.10;;;10.10;;
59970;SDS011;45825;45.434;9.116;2024-01-10T11:08:08;16.45;;;9.10;;
59970;SDS011;45825;45.434;9.116;2024-01-10T11:10:37;19.48;;;9.52;;
59970;SDS011;45825;45.434;9.116;2024-01-10T11:21:33;15.90;;;9.52;;
59970;SDS011;45825;45.434;9.116;2024-01-10T11:24:15;14.80;;;9.02;;
59970;SDS011;45825;45.434;9.116;2024-01-10T11:26:41;15.85;;;9.23;;
59970;SDS011;45825;45.434;9.116;2024-01-10T11:29:06;16.35;;;10.20;;
59970;SDS011;45825;45.434;9.116;2024-01-10T11:31:32;18.95;;;9.65;;
59970;SDS011;45825;45.434;9.116;2024-01-10T11:33:58;16.45;;;10.10;;
59970;SDS011;45825;45.434;9.116;2024-01-10T11:36:25;17.25;;;10.25;;
59970;SDS011;45825;45.434;9.116;2024-01-10T11:41:21;16.20;;;9.23;;
59970;SDS011;45825;45.434;9.116;2024-01-10T11:49:11;15.75;;;9.93;;
59970;SDS011;45825;45.434;9.116;2024-01-10T11:51:44;15.55;;;9.60;;
59970;SDS011;45825;45.434;9.116;2024-01-10T11:54:10;15.15;;;9.40;;
59970;SDS011;45825;45.434;9.116;2024-01-10T11:56:42;16.10;;;10.20;;
59970;SDS011;45825;45.434;9.116;2024-01-10T11:59:15;15.90;;;10.02;;
59970;SDS011;45825;45.434;9.116;2024-01-10T12:01:43;16.02;;;9.98;;
59970;SDS011;45825;45.434;9.116;2024-01-10T12:04:08;16.10;;;9.85;;
59970;SDS011;45825;45.434;9.116;2024-01-10T12:06:37;16.65;;;9.85;;
59970;SDS011;45825;45.434;9.116;2024-01-10T12:09:03;18.05;;;10.40;;
59970;SDS011;45825;45.434;9.116;2024-01-10T12:11:35;17.15;;;10.38;;
59970;SDS011;45825;45.434;9.116;2024-01-10T12:14:01;18.98;;;10.02;;
59970;SDS011;45825;45.434;9.116;2024-01-10T12:16:27;17.50;;;9.20;;
59970;SDS011;45825;45.434;9.116;2024-01-10T12:18:52;15.85;;;9.70;;
59970;SDS011;45825;45.434;9.116;2024-01-10T12:21:18;15.85;;;9.48;;
59970;SDS011;45825;45.434;9.116;2024-01-10T12:23:43;18.65;;;10.00;;
59970;SDS011;45825;45.434;9.116;2024-01-10T12:26:09;17.55;;;9.73;;
59970;SDS011;45825;45.434;9.116;2024-01-10T12:28:37;15.20;;;10.18;;
59970;SDS011;45825;45.434;9.116;2024-01-10T12:31:05;15.55;;;9.95;;
59970;SDS011;45825;45.434;9.116;2024-01-10T12:33:34;16.20;;;9.82;;
59970;SDS011;45825;45.434;9.116;2024-01-10T12:36:05;20.63;;;10.10;;
59970;SDS011;45825;45.434;9.116;2024-01-10T12:38:33;16.80;;;9.88;;
59970;SDS011;45825;45.434;9.116;2024-01-10T12:40:59;17.60;;;10.20;;
59970;SDS011;45825;45.434;9.116;2024-01-10T12:43:25;17.83;;;9.93;;
59970;SDS011;45825;45.434;9.116;2024-01-10T12:46:10;16.00;;;9.93;;
59970;SDS011;45825;45.434;9.116;2024-01-10T12:48:36;18.83;;;10.15;;
59970;SDS011;45825;45.434;9.116;2024-01-10T12:51:09;16.95;;;10.80;;
59970;SDS011;45825;45.434;9.116;2024-01-10T12:53:43;18.02;;;10.50;;
59970;SDS011;45825;45.434;9.116;2024-01-10T12:56:09;18.60;;;10.55;;
59970;SDS011;45825;45.434;9.116;2024-01-10T12:58:39;18.70;;;10.77;;
59970;SDS011;45825;45.434;9.116;2024-01-10T13:01:06;17.15;;;10.15;;
59970;SDS011;45825;45.434;9.116;2024-01-10T13:03:33;17.38;;;10.77;;
59970;SDS011;45825;45.434;9.116;2024-01-10T13:05:59;17.17;;;10.30;;
59970;SDS011;45825;45.434;9.116;2024-01-10T13:08:24;16.60;;;10.40;;
59970;SDS011;45825;45.434;9.116;2024-01-10T13:10:50;19.73;;;10.43;;
59970;SDS011;45825;45.434;9.116;2024-01-10T13:13:15;17.70;;;10.52;;
59970;SDS011;45825;45.434;9.116;2024-01-10T13:15:42;17.85;;;10.60;;
59970;SDS011;45825;45.434;9.116;2024-01-10T13:18:08;17.35;;;10.77;;
59970;SDS011;45825;45.434;9.116;2024-01-10T13:20:38;18.17;;;10.38;;
59970;SDS011;45825;45.434;9.116;2024-01-10T13:23:03;15.55;;;9.80;;
59970;SDS011;45825;45.434;9.116;2024-01-10T13:25:29;18.95;;;10.85;;
59970;SDS011;45825;45.434;9.116;2024-01-10T13:27:55;16.98;;;10.55;;
59970;SDS011;45825;45.434;9.116;2024-01-10T13:30:20;19.38;;;10.90;;
59970;SDS011;45825;45.434;9.116;2024-01-10T13:32:45;17.75;;;11.38;;
59970;SDS011;45825;45.434;9.116;2024-01-10T13:35:14;19.20;;;10.55;;
59970;SDS011;45825;45.434;9.116;2024-01-10T13:37:43;16.85;;;10.32;;
59970;SDS011;45825;45.434;9.116;2024-01-10T13:40:09;17.80;;;10.00;;
59970;SDS011;45825;45.434;9.116;2024-01-10T13:42:37;16.13;;;9.85;;
59970;SDS011;45825;45.434;9.116;2024-01-10T13:45:06;18.13;;;10.65;;
59970;SDS011;45825;45.434;9.116;2024-01-10T13:47:41;17.23;;;10.18;;
59970;SDS011;45825;45.434;9.116;2024-01-10T13:50:06;17.33;;;9.25;;
59970;SDS011;45825;45.434;9.116;2024-01-10T13:52:33;18.98;;;10.02;;
59970;SDS011;45825;45.434;9.116;2024-01-10T13:54:59;16.33;;;9.98;;
59970;SDS011;45825;45.434;9.116;2024-01-10T13:57:25;16.88;;;10.38;;
59970;SDS011;45825;45.434;9.116;2024-01-10T13:59:50;19.60;;;10.88;;
59970;SDS011;45825;45.434;9.116;2024-01-10T14:02:16;18.20;;;10.60;;
59970;SDS011;45825;45.434;9.116;2024-01-10T14:04:43;16.10;;;10.23;;
59970;SDS011;45825;45.434;9.116;2024-01-10T14:07:09;20.23;;;10.25;;
59970;SDS011;45825;45.434;9.116;2024-01-10T14:09:35;18.15;;;10.02;;
59970;SDS011;45825;45.434;9.116;2024-01-10T14:12:00;17.50;;;10.73;;
59970;SDS011;45825;45.434;9.116;2024-01-10T14:14:25;17.25;;;10.70;;
59970;SDS011;45825;45.434;9.116;2024-01-10T14:16:51;16.48;;;10.48;;
59970;SDS011;45825;45.434;9.116;2024-01-10T14:19:16;16.13;;;10.32;;
59970;SDS011;45825;45.434;9.116;2024-01-10T14:21:44;16.92;;;9.85;;
59970;SDS011;45825;45.434;9.116;2024-01-10T14:24:10;17.63;;;10.82;;
59970;SDS011;45825;45.434;9.116;2024-01-10T14:26:37;17.20;;;10.25;;
59970;SDS011;45825;45.434;9.116;2024-01-10T14:29:02;16.30;;;9.25;;
59970;SDS011;45825;45.434;9.116;2024-01-10T14:31:28;18.48;;;10.60;;
59970;SDS011;45825;45.434;9.116;2024-01-10T14:33:53;21.55;;;10.55;;
59970;SDS011;45825;45.434;9.116;2024-01-10T14:36:19;16.45;;;10.30;;
59970;SDS011;45825;45.434;9.116;2024-01-10T14:38:44;19.77;;;10.40;;
59970;SDS011;45825;45.434;9.116;2024-01-10T14:41:10;16.58;;;10.00;;
59970;SDS011;45825;45.434;9.116;2024-01-10T14:43:36;15.63;;;9.82;;
59970;SDS011;45825;45.434;9.116;2024-01-10T14:46:02;16.15;;;10.55;;
59970;SDS011;45825;45.434;9.116;2024-01-10T14:48:27;15.93;;;10.13;;